Time;durP1;ratioP1;P1;durP2;ratioP2;P2;SDS_P1;SDS_P2;PMS_P1;PMS_P2;Temp;Humidity;BMP_temperature;BMP_pressure;BME280_temperature;BME280_humidity;BME280_pressure;Samples;Min_cycle;Max_cycle;Signal;HPM_P1;HPM_P2
2023/10/22 00:00:08;;;;;;;1.90;0.60;;;15.10;99.90;;;;;;5044338;28;20021;-43
2023/10/22 00:02:36;;;;;;;0.80;0.43;;;15.10;99.90;;;;;;5043613;28;20499;-43
2023/10/22 00:05:04;;;;;;;0.80;0.50;;;15.10;99.90;;;;;;5043514;28;20029;-44
2023/10/22 00:07:30;;;;;;;1.45;0.50;;;15.10;99.90;;;;;;5043346;28;20459;-44
2023/10/22 00:09:55;;;;;;;1.58;0.70;;;15.10;99.90;;;;;;5043035;28;20119;-43
2023/10/22 00:12:21;;;;;;;1.50;0.68;;;15.00;99.90;;;;;;5043099;28;20029;-44
2023/10/22 00:14:47;;;;;;;1.65;0.70;;;15.00;99.90;;;;;;5043875;28;20379;-43
2023/10/22 00:17:12;;;;;;;2.03;0.60;;;15.00;99.90;;;;;;5042319;28;20025;-43
2023/10/22 00:19:38;;;;;;;1.85;0.70;;;15.00;99.90;;;;;;5043463;28;20036;-43
2023/10/22 00:22:08;;;;;;;1.73;0.60;;;15.00;99.90;;;;;;5042903;28;20037;-43
2023/10/22 00:24:34;;;;;;;0.57;0.40;;;15.00;99.90;;;;;;5042525;28;20049;-44
2023/10/22 00:27:00;;;;;;;1.23;0.60;;;15.00;99.90;;;;;;5042623;28;20056;-43
2023/10/22 00:29:44;;;;;;;0.98;0.50;;;15.00;99.90;;;;;;5044028;28;20052;-43
2023/10/22 00:32:10;;;;;;;1.30;0.77;;;15.00;99.90;;;;;;5042977;28;20183;-43
2023/10/22 00:34:43;;;;;;;1.63;0.60;;;15.00;99.90;;;;;;5043707;28;20833;-43
2023/10/22 00:37:09;;;;;;;1.52;0.50;;;15.10;99.90;;;;;;5042439;28;20037;-43
2023/10/22 00:39:35;;;;;;;0.88;0.50;;;15.00;99.90;;;;;;5043832;28;20040;-44
2023/10/22 00:42:01;;;;;;;0.80;0.43;;;15.00;99.90;;;;;;5042752;28;20509;-43
2023/10/22 00:44:28;;;;;;;1.05;0.60;;;15.00;99.90;;;;;;5042912;28;20024;-44
2023/10/22 00:46:54;;;;;;;1.35;0.47;;;15.00;99.90;;;;;;5043495;28;20845;-44
2023/10/22 00:49:20;;;;;;;2.22;0.85;;;15.00;99.90;;;;;;5042554;28;20025;-43
2023/10/22 00:51:46;;;;;;;1.33;0.57;;;15.00;99.90;;;;;;5042553;28;20033;-42
2023/10/22 00:54:14;;;;;;;0.73;0.50;;;15.00;99.90;;;;;;5042917;28;20557;-43
2023/10/22 00:56:41;;;;;;;1.98;0.60;;;15.00;99.90;;;;;;5042938;28;20466;-44
2023/10/22 00:59:07;;;;;;;1.25;0.63;;;15.00;99.90;;;;;;5042281;28;20058;-43
2023/10/22 01:01:33;;;;;;;0.57;0.50;;;15.10;99.90;;;;;;5043172;28;20029;-45
2023/10/22 01:03:59;;;;;;;1.67;0.70;;;15.00;99.90;;;;;;5042838;28;20036;-43
2023/10/22 01:06:25;;;;;;;2.17;0.60;;;15.00;99.90;;;;;;5042770;28;20172;-43
2023/10/22 01:08:53;;;;;;;0.88;0.50;;;15.00;99.90;;;;;;5043654;28;20135;-43
2023/10/22 01:11:19;;;;;;;1.75;0.63;;;14.90;99.90;;;;;;5043074;28;20025;-43
2023/10/22 01:13:44;;;;;;;1.30;0.50;;;14.90;99.90;;;;;;5042397;28;20388;-42
2023/10/22 01:16:10;;;;;;;1.42;0.60;;;14.90;99.90;;;;;;5043028;28;20474;-43
2023/10/22 01:18:36;;;;;;;2.05;0.70;;;14.90;99.90;;;;;;5044107;28;20459;-43
2023/10/22 01:21:03;;;;;;;1.92;0.70;;;14.80;99.90;;;;;;5045443;28;20785;-44
2023/10/22 01:23:29;;;;;;;3.20;0.75;;;14.80;99.90;;;;;;5045944;28;20510;-43
2023/10/22 01:25:55;;;;;;;0.95;0.50;;;14.80;99.90;;;;;;5027029;28;20037;-44
2023/10/22 01:28:20;;;;;;;1.23;0.50;;;14.80;99.90;;;;;;5039275;28;20415;-44
2023/10/22 01:30:46;;;;;;;1.02;0.60;;;14.80;99.90;;;;;;5047372;28;20075;-43
2023/10/22 01:33:11;;;;;;;1.42;0.57;;;14.70;99.90;;;;;;5044872;28;20665;-44
2023/10/22 01:35:37;;;;;;;1.23;0.70;;;14.80;99.90;;;;;;5046660;28;20590;-43
2023/10/22 01:38:03;;;;;;;1.42;0.80;;;14.70;99.90;;;;;;5046051;28;20037;-43
2023/10/22 01:40:32;;;;;;;1.45;0.55;;;14.70;99.90;;;;;;5046138;28;20834;-43
2023/10/22 01:42:57;;;;;;;2.53;0.68;;;14.70;99.90;;;;;;5045861;28;20017;-43
2023/10/22 01:45:24;;;;;;;1.77;0.60;;;14.70;99.90;;;;;;5045939;28;20036;-43
2023/10/22 01:47:49;;;;;;;2.90;0.73;;;14.60;99.90;;;;;;5045449;28;20024;-42
2023/10/22 01:50:15;;;;;;;0.68;0.60;;;14.70;99.90;;;;;;5046455;28;20028;-44
2023/10/22 01:52:40;;;;;;;1.48;0.70;;;14.70;99.90;;;;;;5046669;28;20040;-43
2023/10/22 01:55:06;;;;;;;1.55;0.63;;;14.70;99.90;;;;;;5045540;28;20135;-43
2023/10/22 01:57:33;;;;;;;2.28;0.63;;;14.70;99.90;;;;;;5046299;28;20048;-43
2023/10/22 01:59:58;;;;;;;2.05;0.52;;;14.70;99.90;;;;;;5045486;28;20040;-42
2023/10/22 02:02:24;;;;;;;2.35;0.70;;;14.60;99.90;;;;;;5045389;28;20029;-43
2023/10/22 02:04:49;;;;;;;2.40;0.80;;;14.60;99.90;;;;;;5046230;28;20029;-43
2023/10/22 02:07:15;;;;;;;1.77;0.80;;;14.50;99.90;;;;;;5045698;28;20025;-44
2023/10/22 02:09:40;;;;;;;2.10;0.90;;;14.60;99.90;;;;;;5045133;28;20437;-43
2023/10/22 02:12:08;;;;;;;1.90;0.73;;;14.50;99.90;;;;;;5045686;28;20021;-43
2023/10/22 02:14:34;;;;;;;1.30;0.60;;;14.40;99.90;;;;;;5045645;28;20055;-44
2023/10/22 02:17:05;;;;;;;3.13;0.70;;;14.40;99.90;;;;;;5044647;28;20486;-43
2023/10/22 02:19:31;;;;;;;1.43;0.80;;;14.30;99.90;;;;;;5045792;28;20032;-45
2023/10/22 02:21:56;;;;;;;3.03;1.05;;;14.20;99.90;;;;;;5045767;28;20372;-44
2023/10/22 02:24:28;;;;;;;1.95;0.80;;;14.10;99.90;;;;;;5044849;28;20029;-44
2023/10/22 02:26:53;;;;;;;2.08;0.88;;;14.10;99.90;;;;;;5045716;28;20048;-43
2023/10/22 02:29:19;;;;;;;2.22;0.70;;;14.00;99.90;;;;;;5044395;28;20021;-43
2023/10/22 02:31:44;;;;;;;3.17;0.70;;;14.00;99.90;;;;;;5044462;28;20096;-44
2023/10/22 02:34:10;;;;;;;0.95;0.63;;;13.90;99.90;;;;;;5044289;28;20095;-43
2023/10/22 02:36:36;;;;;;;1.35;0.85;;;13.90;99.90;;;;;;5044730;28;20074;-43
2023/10/22 02:39:04;;;;;;;0.80;0.50;;;13.90;99.90;;;;;;5045165;28;20052;-43
2023/10/22 02:41:30;;;;;;;2.97;0.90;;;13.80;99.90;;;;;;5045519;28;20553;-44
2023/10/22 02:43:57;;;;;;;2.00;0.98;;;13.80;99.90;;;;;;5045793;28;20025;-43
2023/10/22 02:46:23;;;;;;;2.85;0.82;;;13.80;99.90;;;;;;5044992;28;20025;-42
2023/10/22 02:48:51;;;;;;;3.60;1.10;;;13.70;99.90;;;;;;5045512;28;20035;-44
2023/10/22 02:51:17;;;;;;;2.22;0.70;;;13.70;99.90;;;;;;5043911;28;20029;-42
2023/10/22 02:53:43;;;;;;;3.00;1.05;;;13.70;99.90;;;;;;5045569;28;20550;-43
2023/10/22 02:56:09;;;;;;;1.33;0.80;;;13.70;99.90;;;;;;5044475;28;20025;-44
2023/10/22 02:58:38;;;;;;;3.22;1.20;;;13.70;99.90;;;;;;5044050;28;20063;-47
2023/10/22 03:01:14;;;;;;;2.58;1.08;;;13.70;99.90;;;;;;5044392;28;20376;-43
2023/10/22 03:03:40;;;;;;;1.92;1.10;;;13.70;99.90;;;;;;5045515;28;20036;-43
2023/10/22 03:06:07;;;;;;;3.60;1.10;;;13.70;99.90;;;;;;5043597;28;20040;-44
2023/10/22 03:08:34;;;;;;;2.50;1.10;;;13.70;99.90;;;;;;5045085;28;20027;-45
2023/10/22 03:11:00;;;;;;;1.65;1.00;;;13.70;99.90;;;;;;5044037;28;20554;-45
2023/10/22 03:13:41;;;;;;;2.10;1.20;;;13.70;99.90;;;;;;5044641;28;20053;-44
2023/10/22 03:16:11;;;;;;;3.58;1.25;;;13.70;99.90;;;;;;5044021;28;20036;-45
2023/10/22 03:18:40;;;;;;;2.58;1.30;;;13.70;99.90;;;;;;5044712;28;20076;-44
2023/10/22 03:21:17;;;;;;;2.03;1.30;;;13.70;99.90;;;;;;5044174;28;20041;-44
2023/10/22 03:23:42;;;;;;;2.35;1.17;;;13.70;99.90;;;;;;5043873;28;20123;-43
2023/10/22 03:26:11;;;;;;;2.10;1.08;;;13.60;99.90;;;;;;5043647;28;20120;-43
2023/10/22 03:28:37;;;;;;;2.80;1.50;;;13.60;99.90;;;;;;5044487;28;20029;-44
2023/10/22 03:31:03;;;;;;;3.60;1.50;;;13.60;99.90;;;;;;5043680;28;20029;-44
2023/10/22 03:33:29;;;;;;;5.20;1.33;;;13.60;99.90;;;;;;5044219;28;20025;-43
2023/10/22 03:35:55;;;;;;;2.65;1.40;;;13.60;99.90;;;;;;5043921;28;20082;-43
2023/10/22 03:38:21;;;;;;;2.20;1.23;;;13.50;99.90;;;;;;5043442;28;20045;-43
2023/10/22 03:40:46;;;;;;;2.95;1.30;;;13.50;99.90;;;;;;5043654;28;20041;-43
2023/10/22 03:43:18;;;;;;;3.40;1.65;;;13.50;99.90;;;;;;5043923;28;20044;-43
2023/10/22 03:45:43;;;;;;;2.63;1.50;;;13.50;99.90;;;;;;5045129;28;20021;-44
2023/10/22 03:48:09;;;;;;;1.42;1.15;;;13.50;99.90;;;;;;5042930;28;20611;-43
2023/10/22 03:50:34;;;;;;;2.30;1.20;;;13.40;99.90;;;;;;5044523;28;20021;-43
2023/10/22 03:53:03;;;;;;;1.92;1.38;;;13.50;99.90;;;;;;5043447;28;20495;-43
2023/10/22 03:55:34;;;;;;;3.78;1.40;;;13.40;99.90;;;;;;5043806;28;20037;-43
2023/10/22 03:58:00;;;;;;;2.08;1.40;;;13.40;99.90;;;;;;5043741;28;20036;-43
2023/10/22 04:00:25;;;;;;;2.42;1.40;;;13.40;99.90;;;;;;5044439;28;20082;-43
2023/10/22 04:02:51;;;;;;;1.20;1.10;;;13.40;99.90;;;;;;5043930;28;20378;-43
2023/10/22 04:05:16;;;;;;;1.85;1.30;;;13.40;99.90;;;;;;5043549;28;20429;-43
2023/10/22 04:07:42;;;;;;;1.73;1.58;;;13.40;99.90;;;;;;5043662;28;20556;-43
2023/10/22 04:10:09;;;;;;;3.03;1.38;;;13.40;99.90;;;;;;5042554;28;20029;-43
2023/10/22 04:12:38;;;;;;;2.28;1.58;;;13.40;99.90;;;;;;5043818;28;20052;-44
2023/10/22 04:15:04;;;;;;;1.50;1.40;;;13.40;99.90;;;;;;5042621;28;20076;-43
2023/10/22 04:17:29;;;;;;;2.28;1.52;;;13.40;99.90;;;;;;5043731;28;20068;-42
2023/10/22 04:19:55;;;;;;;2.55;1.77;;;13.40;99.90;;;;;;5043546;28;20052;-44
2023/10/22 04:22:21;;;;;;;1.77;1.40;;;13.40;99.90;;;;;;5042847;28;20025;-43
2023/10/22 04:24:47;;;;;;;2.97;1.50;;;13.40;99.90;;;;;;5043481;28;20024;-43
2023/10/22 04:27:13;;;;;;;1.90;1.40;;;13.40;99.90;;;;;;5043653;28;20033;-43
2023/10/22 04:29:38;;;;;;;1.63;1.20;;;13.40;99.90;;;;;;5042649;28;20055;-43
2023/10/22 04:32:07;;;;;;;2.50;1.33;;;13.40;99.90;;;;;;5042423;28;20065;-43
2023/10/22 04:34:33;;;;;;;2.53;1.30;;;13.40;99.90;;;;;;5044064;28;20115;-44
2023/10/22 04:36:58;;;;;;;1.65;1.52;;;13.40;99.90;;;;;;5042280;28;20055;-43
2023/10/22 04:39:27;;;;;;;1.85;1.67;;;13.50;99.90;;;;;;5042878;28;20040;-43
2023/10/22 04:41:52;;;;;;;1.70;1.60;;;13.40;99.90;;;;;;5043844;28;20035;-43
2023/10/22 04:44:19;;;;;;;2.10;1.70;;;13.40;99.90;;;;;;5041960;28;20029;-43
2023/10/22 04:46:47;;;;;;;1.92;1.60;;;13.50;99.90;;;;;;5043493;28;20464;-43
2023/10/22 04:49:13;;;;;;;1.50;1.40;;;13.40;99.90;;;;;;5042907;28;20064;-43
2023/10/22 04:51:40;;;;;;;2.88;1.83;;;13.40;99.90;;;;;;5042680;28;20094;-43
2023/10/22 04:54:05;;;;;;;2.75;2.05;;;13.40;99.90;;;;;;5045292;28;20024;-44
2023/10/22 04:56:32;;;;;;;1.85;1.42;;;13.40;99.90;;;;;;5047575;28;20032;-43
2023/10/22 04:59:04;;;;;;;2.58;1.80;;;13.40;99.90;;;;;;5046490;28;20400;-43
2023/10/22 05:01:29;;;;;;;2.42;1.77;;;13.40;99.90;;;;;;5047048;28;20725;-44
2023/10/22 05:03:55;;;;;;;2.05;1.80;;;13.40;99.90;;;;;;5046685;28;20024;-43
2023/10/22 05:06:24;;;;;;;2.08;1.63;;;13.40;99.90;;;;;;5045083;28;20017;-43
2023/10/22 05:08:49;;;;;;;1.80;1.40;;;13.40;99.90;;;;;;5047647;28;20021;-43
2023/10/22 05:11:16;;;;;;;1.65;1.52;;;13.50;99.90;;;;;;5045378;28;20033;-44
2023/10/22 05:13:46;;;;;;;2.78;1.77;;;13.50;99.90;;;;;;5047576;28;20021;-43
2023/10/22 05:16:12;;;;;;;3.13;2.05;;;13.50;99.90;;;;;;5046193;28;20075;-44
2023/10/22 05:18:40;;;;;;;3.63;2.10;;;13.50;99.90;;;;;;5045955;28;20099;-43
2023/10/22 05:21:07;;;;;;;4.75;2.42;;;13.50;99.90;;;;;;5046375;28;20025;-43
2023/10/22 05:23:36;;;;;;;3.13;2.45;;;13.50;99.90;;;;;;5046673;28;20505;-43
2023/10/22 05:26:12;;;;;;;3.55;3.25;;;13.50;99.90;;;;;;5045599;28;20033;-43
2023/10/22 05:28:38;;;;;;;5.18;3.58;;;13.50;99.90;;;;;;5047206;28;20021;-43
2023/10/22 05:31:14;;;;;;;5.32;4.10;;;13.40;99.90;;;;;;5046060;28;20029;-43
2023/10/22 05:33:41;;;;;;;5.35;4.25;;;13.40;99.90;;;;;;5046698;28;20080;-43
2023/10/22 05:36:27;;;;;;;4.43;3.83;;;13.40;99.90;;;;;;5046199;28;20028;-43
2023/10/22 05:38:53;;;;;;;4.95;3.95;;;13.40;99.90;;;;;;5043290;28;20111;-43
2023/10/22 05:41:21;;;;;;;4.80;4.03;;;13.30;99.90;;;;;;5045449;28;20033;-42
2023/10/22 05:44:03;;;;;;;4.55;3.20;;;13.20;99.90;;;;;;5046337;28;20353;-43
2023/10/22 05:46:33;;;;;;;4.20;3.05;;;13.20;99.90;;;;;;5035955;28;20515;-44
2023/10/22 05:48:59;;;;;;;2.90;2.55;;;13.20;99.90;;;;;;5045541;28;20499;-43
2023/10/22 05:51:25;;;;;;;2.55;2.35;;;13.10;99.90;;;;;;5045851;28;20017;-43
2023/10/22 05:53:50;;;;;;;2.80;2.50;;;13.10;99.90;;;;;;5043557;28;20032;-45
2023/10/22 05:56:16;;;;;;;3.55;2.50;;;13.00;99.90;;;;;;5044888;28;20592;-44
2023/10/22 05:58:43;;;;;;;2.88;2.45;;;13.10;99.90;;;;;;5046033;28;20032;-44
2023/10/22 06:01:12;;;;;;;3.33;2.40;;;13.00;99.90;;;;;;5044513;28;20078;-46
2023/10/22 06:03:38;;;;;;;3.40;2.75;;;13.00;99.90;;;;;;5045836;28;20025;-44
2023/10/22 06:06:06;;;;;;;3.63;2.50;;;13.00;99.90;;;;;;5045132;28;20380;-44
2023/10/22 06:08:32;;;;;;;3.13;2.67;;;13.00;99.90;;;;;;5045024;28;20017;-44
2023/10/22 06:10:57;;;;;;;3.92;2.75;;;13.00;99.90;;;;;;5045497;28;20028;-45
2023/10/22 06:13:23;;;;;;;4.60;2.70;;;13.00;99.90;;;;;;5044936;28;20025;-45
2023/10/22 06:15:48;;;;;;;3.83;3.22;;;13.00;99.90;;;;;;5045403;28;20139;-45
2023/10/22 06:18:14;;;;;;;4.50;3.90;;;13.10;99.90;;;;;;5044552;28;20044;-43
2023/10/22 06:20:42;;;;;;;4.72;3.50;;;13.10;99.90;;;;;;5044856;28;20146;-43
2023/10/22 06:23:08;;;;;;;3.53;2.83;;;13.00;99.90;;;;;;5043808;28;20143;-43
2023/10/22 06:25:34;;;;;;;4.75;2.97;;;13.00;99.90;;;;;;5044936;28;20021;-43
2023/10/22 06:28:01;;;;;;;3.65;3.30;;;13.00;99.90;;;;;;5044800;28;20132;-43
2023/10/22 06:30:30;;;;;;;3.25;2.83;;;13.00;99.90;;;;;;5044551;28;20025;-43
2023/10/22 06:32:56;;;;;;;3.60;3.30;;;13.00;99.90;;;;;;5044475;28;20867;-45
2023/10/22 06:35:26;;;;;;;4.00;3.58;;;13.00;99.90;;;;;;5044151;28;20025;-44
2023/10/22 06:37:56;;;;;;;4.38;3.67;;;13.10;99.90;;;;;;5044130;28;20033;-44
2023/10/22 06:40:22;;;;;;;4.32;3.55;;;13.10;99.90;;;;;;5044238;28;20507;-43
2023/10/22 06:42:48;;;;;;;3.83;3.15;;;13.10;99.90;;;;;;5044652;28;20017;-43
2023/10/22 06:45:14;;;;;;;3.30;3.00;;;13.20;99.90;;;;;;5032839;28;20040;-43
2023/10/22 06:47:41;;;;;;;3.28;3.00;;;13.20;99.90;;;;;;5044422;28;20035;-43
2023/10/22 06:50:08;;;;;;;3.60;3.30;;;13.20;99.90;;;;;;5042918;28;20748;-43
2023/10/22 06:52:34;;;;;;;3.60;3.30;;;13.20;99.90;;;;;;5044628;28;20053;-44
2023/10/22 06:55:04;;;;;;;4.20;3.80;;;13.30;99.90;;;;;;5043796;28;20033;-42
2023/10/22 06:57:29;;;;;;;4.07;3.67;;;13.30;99.90;;;;;;5043727;28;20047;-43
2023/10/22 06:59:57;;;;;;;5.40;4.03;;;13.30;99.90;;;;;;5043856;28;20395;-43
2023/10/22 07:02:32;;;;;;;4.32;3.60;;;13.40;99.90;;;;;;5043401;28;20051;-43
2023/10/22 07:04:58;;;;;;;4.25;3.60;;;13.40;99.90;;;;;;5043042;28;20032;-44
2023/10/22 07:07:24;;;;;;;4.85;3.63;;;13.40;99.90;;;;;;5043962;28;20036;-44
2023/10/22 07:09:50;;;;;;;3.70;3.40;;;13.30;99.90;;;;;;5043973;28;20464;-43
2023/10/22 07:12:16;;;;;;;3.65;3.35;;;13.30;99.90;;;;;;5043243;28;20399;-44
2023/10/22 07:14:44;;;;;;;5.07;3.40;;;13.20;99.90;;;;;;5043184;28;20025;-46
2023/10/22 07:17:10;;;;;;;3.83;2.88;;;13.20;99.90;;;;;;5043353;28;20044;-43
2023/10/22 07:19:36;;;;;;;3.70;3.30;;;13.10;99.90;;;;;;5042871;28;20017;-44
2023/10/22 07:22:02;;;;;;;3.10;2.80;;;13.10;99.90;;;;;;5043179;28;20021;-44
2023/10/22 07:24:30;;;;;;;4.63;2.97;;;13.10;99.90;;;;;;5040855;28;20032;-43
2023/10/22 07:26:59;;;;;;;3.05;2.75;;;13.10;99.90;;;;;;5042918;28;20056;-43
2023/10/22 07:29:24;;;;;;;6.55;3.38;;;13.10;99.90;;;;;;5043462;28;20100;-44
2023/10/22 07:31:51;;;;;;;4.57;3.05;;;13.10;99.90;;;;;;5044253;28;20112;-45
2023/10/22 07:34:17;;;;;;;3.45;2.92;;;13.20;99.90;;;;;;5042996;28;20025;-45
2023/10/22 07:36:43;;;;;;;3.92;3.25;;;13.20;99.90;;;;;;5043854;28;20051;-43
2023/10/22 07:39:08;;;;;;;4.60;2.97;;;13.20;99.90;;;;;;5042442;28;20426;-44
2023/10/22 07:41:34;;;;;;;3.13;2.83;;;13.20;99.90;;;;;;5044321;28;20722;-44
2023/10/22 07:44:00;;;;;;;4.57;2.58;;;13.20;99.90;;;;;;5043473;28;20767;-44
2023/10/22 07:46:26;;;;;;;4.80;2.97;;;13.20;99.90;;;;;;5043258;28;20079;-43
2023/10/22 07:48:51;;;;;;;3.60;2.40;;;13.10;99.90;;;;;;5043542;28;20377;-44
2023/10/22 07:51:18;;;;;;;4.10;2.58;;;13.10;99.90;;;;;;5042501;28;20025;-44
2023/10/22 07:53:46;;;;;;;3.28;2.70;;;13.10;99.90;;;;;;5042698;28;20566;-43
2023/10/22 07:56:15;;;;;;;3.08;2.70;;;13.10;99.90;;;;;;5042917;28;20033;-43
2023/10/22 07:58:41;;;;;;;3.88;3.03;;;13.00;99.90;;;;;;5043071;28;20032;-44
2023/10/22 08:01:07;;;;;;;2.90;2.42;;;13.00;99.90;;;;;;5042042;28;20493;-43
2023/10/22 08:03:33;;;;;;;2.97;2.33;;;12.90;99.90;;;;;;5042936;28;20031;-43
2023/10/22 08:06:00;;;;;;;2.88;2.58;;;12.90;99.90;;;;;;5042823;28;20099;-43
2023/10/22 08:08:26;;;;;;;2.53;2.03;;;12.90;99.90;;;;;;5042640;28;20143;-44
2023/10/22 08:10:55;;;;;;;2.72;2.30;;;12.90;99.90;;;;;;5043278;28;20108;-44
2023/10/22 08:13:20;;;;;;;2.65;1.75;;;12.90;99.90;;;;;;5042982;28;20110;-44
2023/10/22 08:15:47;;;;;;;2.10;1.90;;;12.90;99.90;;;;;;5042392;28;20025;-47
2023/10/22 08:18:19;;;;;;;2.17;1.98;;;12.90;99.90;;;;;;5042367;28;20045;-45
2023/10/22 08:20:45;;;;;;;4.10;2.20;;;12.90;99.90;;;;;;5042735;28;20048;-45
2023/10/22 08:23:10;;;;;;;2.67;2.00;;;12.90;99.90;;;;;;5041754;28;20095;-44
2023/10/22 08:25:36;;;;;;;2.53;2.10;;;13.00;99.90;;;;;;5042904;28;20147;-43
2023/10/22 08:28:02;;;;;;;1.80;1.50;;;13.00;99.90;;;;;;5042995;28;20036;-43
2023/10/22 08:30:28;;;;;;;2.33;1.90;;;13.00;99.90;;;;;;5047018;28;20029;-44
2023/10/22 08:32:53;;;;;;;1.95;1.80;;;13.00;99.90;;;;;;5047163;28;20052;-44
2023/10/22 08:35:23;;;;;;;3.95;2.30;;;13.10;99.90;;;;;;5045976;28;20438;-44
2023/10/22 08:37:49;;;;;;;2.08;1.60;;;13.00;99.90;;;;;;5047478;28;20116;-44
2023/10/22 08:40:15;;;;;;;4.43;1.88;;;13.10;99.90;;;;;;5046162;28;20139;-44
2023/10/22 08:42:40;;;;;;;4.82;1.83;;;13.10;99.90;;;;;;5045885;28;20021;-43
2023/10/22 08:45:07;;;;;;;2.17;1.50;;;13.10;99.90;;;;;;5046158;28;20016;-44
2023/10/22 08:47:36;;;;;;;2.15;1.60;;;13.10;99.90;;;;;;5046464;28;20166;-43
2023/10/22 08:50:02;;;;;;;1.42;1.33;;;13.10;99.90;;;;;;5045368;28;20025;-43
2023/10/22 08:52:28;;;;;;;1.35;1.10;;;13.20;99.90;;;;;;5046537;28;20058;-43
2023/10/22 08:54:54;;;;;;;1.60;1.40;;;13.20;99.90;;;;;;5046570;28;20130;-43
2023/10/22 08:57:23;;;;;;;2.35;1.40;;;13.30;99.90;;;;;;5045827;28;20067;-43
2023/10/22 08:59:48;;;;;;;1.90;1.50;;;13.40;99.90;;;;;;5047274;28;20100;-44
2023/10/22 09:02:16;;;;;;;2.47;1.38;;;13.60;99.90;;;;;;5046127;28;20112;-43
2023/10/22 09:04:42;;;;;;;2.05;1.35;;;13.60;99.90;;;;;;5045681;28;20117;-44
2023/10/22 09:07:08;;;;;;;1.70;1.42;;;13.80;99.90;;;;;;5045606;28;20458;-44
2023/10/22 09:09:36;;;;;;;3.88;1.67;;;13.80;99.90;;;;;;5046429;28;20587;-44
2023/10/22 09:12:10;;;;;;;1.92;1.40;;;13.90;99.90;;;;;;5046108;28;20017;-44
2023/10/22 09:14:36;;;;;;;4.15;1.60;;;14.00;99.90;;;;;;5045867;28;20620;-43
2023/10/22 09:17:18;;;;;;;2.03;1.38;;;14.00;99.90;;;;;;5045790;28;20036;-43
2023/10/22 09:19:47;;;;;;;1.90;1.20;;;14.10;99.90;;;;;;5046052;28;20021;-43
2023/10/22 09:22:26;;;;;;;1.40;1.30;;;14.20;99.90;;;;;;5046623;28;20021;-44
2023/10/22 09:24:56;;;;;;;1.90;1.20;;;14.20;99.90;;;;;;5045375;28;20071;-44
2023/10/22 09:27:32;;;;;;;1.98;1.50;;;14.30;99.90;;;;;;5045936;28;20025;-44
2023/10/22 09:30:00;;;;;;;2.85;1.58;;;14.30;99.90;;;;;;5045150;28;20037;-44
2023/10/22 09:32:25;;;;;;;2.70;1.30;;;14.30;99.90;;;;;;5045299;28;20065;-44
2023/10/22 09:34:52;;;;;;;2.10;1.33;;;14.30;99.90;;;;;;5045552;28;20125;-43
2023/10/22 09:37:18;;;;;;;1.55;1.02;;;14.40;99.90;;;;;;5025206;28;20690;-44
2023/10/22 09:39:44;;;;;;;2.85;1.60;;;14.40;99.90;;;;;;5038879;28;20036;-44
2023/10/22 09:42:11;;;;;;;3.17;1.58;;;14.50;99.90;;;;;;5044872;28;20039;-43
2023/10/22 09:44:39;;;;;;;2.38;1.55;;;14.50;99.90;;;;;;5045679;28;20124;-45
2023/10/22 09:47:06;;;;;;;1.20;1.10;;;14.60;99.90;;;;;;5044826;28;20083;-44
2023/10/22 09:49:35;;;;;;;2.20;1.20;;;14.60;99.90;;;;;;5045747;28;20025;-44
2023/10/22 09:52:03;;;;;;;2.03;1.48;;;14.70;99.90;;;;;;5045647;28;20051;-43
2023/10/22 09:54:42;;;;;;;2.60;1.15;;;14.70;99.90;;;;;;5044961;28;20376;-44
2023/10/22 09:57:09;;;;;;;1.77;1.30;;;14.80;99.90;;;;;;5045433;28;20043;-44
2023/10/22 09:59:35;;;;;;;1.48;1.08;;;14.80;99.90;;;;;;5044823;28;20031;-45
2023/10/22 10:02:01;;;;;;;2.15;1.27;;;14.80;99.90;;;;;;5045906;28;20020;-44
2023/10/22 10:04:30;;;;;;;2.40;1.23;;;14.90;99.90;;;;;;5044537;28;20577;-43
2023/10/22 10:06:58;;;;;;;2.80;1.50;;;14.90;99.90;;;;;;5044871;28;20044;-43
2023/10/22 10:09:24;;;;;;;2.35;1.25;;;14.90;99.90;;;;;;5045423;28;20028;-43
2023/10/22 10:11:51;;;;;;;1.48;1.00;;;15.00;99.90;;;;;;5045396;28;20032;-43
2023/10/22 10:14:45;;;;;;;2.22;1.13;;;15.00;99.90;;;;;;5043566;28;20600;-43
2023/10/22 10:17:12;;;;;;;1.73;1.10;;;15.10;99.90;;;;;;5044836;28;20079;-43
2023/10/22 10:19:38;;;;;;;2.08;1.23;;;15.10;99.90;;;;;;5044889;28;20021;-44
2023/10/22 10:22:05;;;;;;;2.13;1.20;;;15.10;99.90;;;;;;5043728;28;20036;-44
2023/10/22 10:24:34;;;;;;;0.90;0.85;;;15.20;99.90;;;;;;5044336;28;20063;-44
2023/10/22 10:27:00;;;;;;;2.17;1.20;;;15.20;99.90;;;;;;5044341;28;20080;-45
2023/10/22 10:29:27;;;;;;;2.15;1.15;;;15.20;99.90;;;;;;5044347;28;20032;-44
2023/10/22 10:32:19;;;;;;;3.00;1.20;;;15.20;99.90;;;;;;5045429;28;20063;-44
2023/10/22 10:34:49;;;;;;;2.05;1.30;;;15.30;99.90;;;;;;5044279;28;20091;-44
2023/10/22 10:37:20;;;;;;;3.20;1.70;;;15.20;99.90;;;;;;5044076;28;20037;-43
2023/10/22 10:39:47;;;;;;;2.72;1.40;;;15.20;99.90;;;;;;5045162;28;20075;-44
2023/10/22 10:42:31;;;;;;;2.45;1.33;;;15.20;99.90;;;;;;5043605;28;20801;-44
2023/10/22 10:47:22;;;;;;;3.88;1.20;;;15.30;99.90;;;;;;5044454;28;20056;-44
2023/10/22 10:49:59;;;;;;;1.67;1.23;;;15.30;99.90;;;;;;5044705;28;20075;-44
2023/10/22 10:52:24;;;;;;;1.80;1.10;;;15.40;99.90;;;;;;5042779;28;20765;-43
2023/10/22 10:55:07;;;;;;;1.13;0.98;;;15.40;99.90;;;;;;5044398;28;20036;-43
2023/10/22 10:57:36;;;;;;;;;;;15.40;99.90;;;;;;5043947;28;20132;-43
2023/10/22 11:00:09;;;;;;;1.88;1.00;;;15.60;99.90;;;;;;5024072;28;19909;-44
2023/10/22 11:02:42;;;;;;;2.38;1.00;;;15.60;99.90;;;;;;5038987;28;20028;-44
2023/10/22 11:05:09;;;;;;;2.65;0.90;;;15.60;99.90;;;;;;5043394;28;20025;-43
2023/10/22 11:07:42;;;;;;;1.33;1.00;;;15.50;99.90;;;;;;5043995;28;20407;-43
2023/10/22 11:10:09;;;;;;;2.17;1.02;;;15.50;99.90;;;;;;5023471;28;20029;-43
2023/10/22 11:12:38;;;;;;;2.13;1.08;;;15.60;99.90;;;;;;5036369;28;20040;-44
2023/10/22 11:15:05;;;;;;;2.65;1.33;;;15.60;99.90;;;;;;5044146;28;20033;-44
2023/10/22 11:17:30;;;;;;;4.75;2.10;;;15.60;99.90;;;;;;5042853;28;20033;-44
2023/10/22 11:20:04;;;;;;;1.25;0.90;;;15.50;99.90;;;;;;5044715;28;20047;-44
2023/10/22 11:22:30;;;;;;;3.97;1.10;;;15.60;99.90;;;;;;5043977;28;20086;-44
2023/10/22 11:24:57;;;;;;;1.25;1.10;;;15.70;99.90;;;;;;5043623;28;20050;-44
2023/10/22 11:27:23;;;;;;;4.07;1.00;;;15.70;99.90;;;;;;5043434;28;20025;-44
2023/10/22 11:29:49;;;;;;;1.25;0.80;;;15.80;99.90;;;;;;5043622;28;20025;-44
2023/10/22 11:32:16;;;;;;;1.45;1.00;;;15.90;99.90;;;;;;5041586;28;20029;-44
2023/10/22 11:34:52;;;;;;;1.88;0.90;;;15.90;99.90;;;;;;5043439;28;20115;-44
2023/10/22 11:37:41;;;;;;;1.70;1.02;;;16.00;99.90;;;;;;5041717;28;20044;-45
2023/10/22 11:40:25;;;;;;;2.25;1.00;;;16.00;99.90;;;;;;5030048;28;20472;-43
2023/10/22 11:42:53;;;;;;;1.67;1.10;;;16.00;99.90;;;;;;5041920;28;20049;-44
2023/10/22 11:45:19;;;;;;;2.30;1.30;;;16.00;99.90;;;;;;5038968;28;20037;-44
2023/10/22 11:47:45;;;;;;;2.47;1.25;;;16.00;99.90;;;;;;5039514;28;20035;-43
2023/10/22 11:50:13;;;;;;;1.92;1.17;;;16.00;99.90;;;;;;5040234;28;20021;-43
2023/10/22 11:52:49;;;;;;;1.45;1.20;;;16.00;99.90;;;;;;5040497;28;20048;-44
2023/10/22 11:55:15;;;;;;;1.02;0.90;;;16.00;99.90;;;;;;5037255;28;20017;-42
2023/10/22 11:57:40;;;;;;;2.58;1.20;;;16.10;99.90;;;;;;5041154;28;20055;-43
2023/10/22 12:00:10;;;;;;;2.03;1.20;;;16.10;99.90;;;;;;5040259;28;20027;-44
2023/10/22 12:02:39;;;;;;;2.03;1.30;;;16.20;99.90;;;;;;5040767;28;20033;-44
2023/10/22 12:05:05;;;;;;;1.73;1.40;;;16.20;99.90;;;;;;5040274;28;20025;-44
2023/10/22 12:07:31;;;;;;;2.38;1.50;;;16.20;99.90;;;;;;5040263;28;20025;-44
2023/10/22 12:09:58;;;;;;;1.67;1.30;;;16.20;99.90;;;;;;5039833;28;20064;-43
2023/10/22 12:12:23;;;;;;;2.03;1.30;;;16.20;99.90;;;;;;5040540;28;20037;-44
2023/10/22 12:14:49;;;;;;;1.58;1.40;;;16.30;99.90;;;;;;5040043;28;20374;-43
2023/10/22 12:17:16;;;;;;;1.67;1.58;;;16.30;99.90;;;;;;5039773;28;20045;-43
2023/10/22 12:19:42;;;;;;;1.30;1.20;;;16.30;99.90;;;;;;5039950;28;20024;-43
2023/10/22 12:22:07;;;;;;;2.50;1.60;;;16.30;99.90;;;;;;5039355;28;20647;-44
2023/10/22 12:24:33;;;;;;;3.38;1.60;;;16.30;99.90;;;;;;5040266;28;20661;-44
2023/10/22 12:26:59;;;;;;;1.67;1.58;;;16.30;99.90;;;;;;5040433;28;20574;-44
2023/10/22 12:29:25;;;;;;;1.80;1.40;;;16.30;99.90;;;;;;5039486;28;20690;-43
2023/10/22 12:31:50;;;;;;;4.65;1.58;;;16.30;99.90;;;;;;5038079;28;20029;-43
2023/10/22 12:34:16;;;;;;;3.22;1.35;;;16.30;99.90;;;;;;5022557;28;20036;-43
2023/10/22 12:36:42;;;;;;;3.60;1.50;;;16.30;99.90;;;;;;5040425;28;20060;-44
2023/10/22 12:39:08;;;;;;;1.95;1.70;;;16.30;99.90;;;;;;5038239;28;20124;-43
2023/10/22 12:41:34;;;;;;;2.00;1.60;;;16.30;99.90;;;;;;5038117;28;20021;-42
2023/10/22 12:44:00;;;;;;;2.08;1.40;;;16.30;99.90;;;;;;5039604;28;20025;-43
2023/10/22 12:46:28;;;;;;;1.60;1.40;;;16.30;99.90;;;;;;5039584;28;20142;-43
2023/10/22 12:48:54;;;;;;;2.97;1.45;;;16.30;99.90;;;;;;5039772;28;20040;-43
2023/10/22 12:51:20;;;;;;;2.45;1.70;;;16.30;99.90;;;;;;5040158;28;20025;-43